createdAt,value
2018-11-21T00:02:15.572Z,81.43
2018-11-21T00:04:54.818Z,81.55
2018-11-21T00:07:27.331Z,81.58
2018-11-21T00:16:07.443Z,80.48
2018-11-21T00:18:35.510Z,80.47
2018-11-21T00:21:03.628Z,80.66
2018-11-21T00:23:31.743Z,80.57
2018-11-21T00:25:59.819Z,80.86
2018-11-21T00:28:27.896Z,80.89
2018-11-21T00:30:55.991Z,80.47
2018-11-21T00:33:24.067Z,80.74
2018-11-21T00:35:52.134Z,80.83
2018-11-21T00:38:20.235Z,80.80
2018-11-21T00:40:48.367Z,81.00
2018-11-21T00:43:16.447Z,80.88
2018-11-21T00:45:44.507Z,81.22
2018-11-21T00:48:12.639Z,81.53
2018-11-21T00:50:40.729Z,82.15
2018-11-21T00:53:08.808Z,82.48
2018-11-21T00:55:36.883Z,82.47
2018-11-21T00:58:05.144Z,83.00
2018-11-21T01:00:33.210Z,83.44
2018-11-21T01:03:01.316Z,83.31
2018-11-21T01:05:29.413Z,83.30
2018-11-21T01:07:57.477Z,83.14
2018-11-21T01:10:25.527Z,83.48
2018-11-21T01:12:53.596Z,83.47
2018-11-21T01:15:21.688Z,83.83
2018-11-21T01:17:49.789Z,83.73
2018-11-21T01:20:17.864Z,84.14
2018-11-21T01:22:45.957Z,84.43
2018-11-21T01:25:14.030Z,84.24
2018-11-21T01:27:42.193Z,84.45
2018-11-21T01:30:10.249Z,84.46
2018-11-21T01:32:38.760Z,84.51
2018-11-21T01:35:07.237Z,84.62
2018-11-21T01:37:35.369Z,84.48
2018-11-21T01:40:03.602Z,84.55
2018-11-21T01:42:31.690Z,84.80
2018-11-21T01:44:59.758Z,84.62
2018-11-21T01:47:27.806Z,84.81
2018-11-21T01:49:55.849Z,84.67
2018-11-21T01:52:23.940Z,84.52
2018-11-21T01:54:52.022Z,84.76
2018-11-21T01:57:20.105Z,84.56
2018-11-21T01:59:48.243Z,84.67
2018-11-21T02:02:16.301Z,85.00
2018-11-21T02:04:44.366Z,84.89
2018-11-21T02:07:12.420Z,84.69
2018-11-21T02:09:40.927Z,84.51
2018-11-21T02:12:08.983Z,84.68
2018-11-21T02:14:37.064Z,84.88
2018-11-21T02:17:05.280Z,84.53
2018-11-21T02:19:33.353Z,84.66
2018-11-21T02:22:01.406Z,84.78
2018-11-21T02:24:29.512Z,85.11
2018-11-21T02:26:57.568Z,85.21
2018-11-21T02:29:25.638Z,85.08
2018-11-21T02:31:53.725Z,85.21
2018-11-21T02:34:21.910Z,85.11
2018-11-21T02:36:49.892Z,85.50
2018-11-21T02:39:17.945Z,85.63
2018-11-21T02:41:45.994Z,85.52
2018-11-21T02:44:14.075Z,85.56
2018-11-21T02:46:42.177Z,85.65
2018-11-21T02:49:10.260Z,85.00
2018-11-21T02:51:38.725Z,84.87
2018-11-21T02:54:06.796Z,84.85
2018-11-21T02:57:13.699Z,85.18
2018-11-21T02:59:41.861Z,85.21
2018-11-21T03:02:09.929Z,85.19
2018-11-21T03:04:38.116Z,85.59
2018-11-21T03:07:06.394Z,85.38
2018-11-21T03:09:34.898Z,85.60
2018-11-21T03:12:02.957Z,85.89
2018-11-21T03:14:31.051Z,86.18
2018-11-21T03:16:59.136Z,86.50
2018-11-21T03:19:27.213Z,86.30
2018-11-21T03:21:55.289Z,86.40
2018-11-21T03:24:23.383Z,86.69
2018-11-21T03:26:52.128Z,86.67
2018-11-21T03:29:20.270Z,86.80
2018-11-21T03:31:48.354Z,86.45
2018-11-21T03:34:16.399Z,86.70
2018-11-21T03:37:03.582Z,87.28
2018-11-21T03:39:31.663Z,87.25
2018-11-21T03:41:59.727Z,86.84
2018-11-21T03:44:27.788Z,86.86
2018-11-21T03:46:55.871Z,86.94
2018-11-21T03:49:23.973Z,87.10
2018-11-21T03:51:52.036Z,86.70
2018-11-21T03:54:20.132Z,86.89
2018-11-21T03:56:48.209Z,87.03
2018-11-21T03:59:16.256Z,87.11
2018-11-21T04:01:44.317Z,87.18
2018-11-21T04:04:12.412Z,86.61
2018-11-21T04:06:40.471Z,86.54
2018-11-21T04:09:10.219Z,86.93
2018-11-21T04:11:38.295Z,87.43
2018-11-21T04:14:06.413Z,87.46
2018-11-21T04:16:34.484Z,87.24
2018-11-21T04:19:02.525Z,87.24
2018-11-21T04:21:30.580Z,87.46
2018-11-21T04:23:58.651Z,87.66
2018-11-21T04:26:26.706Z,87.83
2018-11-21T04:28:54.782Z,87.58
2018-11-21T04:31:22.841Z,87.96
2018-11-21T04:33:50.921Z,88.19
2018-11-21T04:36:18.979Z,88.33
2018-11-21T04:38:47.108Z,88.33
2018-11-21T04:41:15.109Z,88.54
2018-11-21T04:43:43.185Z,88.78
2018-11-21T04:46:11.249Z,88.44
2018-11-21T04:48:39.319Z,88.76
2018-11-21T04:51:07.375Z,88.97
2018-11-21T04:53:35.492Z,88.97
2018-11-21T04:56:03.552Z,88.63
2018-11-21T04:58:31.636Z,88.97
2018-11-21T05:00:59.692Z,89.37
2018-11-21T05:03:27.761Z,89.71
2018-11-21T05:05:55.848Z,89.89
2018-11-21T05:08:23.907Z,89.99
2018-11-21T05:10:51.990Z,90.35
2018-11-21T05:13:20.071Z,90.32
2018-11-21T05:15:48.110Z,90.39
2018-11-21T05:18:16.176Z,90.06
2018-11-21T05:20:44.237Z,89.53
2018-11-21T05:23:12.289Z,89.79
2018-11-21T05:25:40.347Z,89.84
2018-11-21T05:28:08.421Z,89.60
2018-11-21T05:30:36.477Z,89.44
2018-11-21T05:33:04.708Z,89.03
2018-11-21T05:35:32.779Z,89.20
2018-11-21T05:38:00.839Z,89.02
2018-11-21T05:40:28.928Z,89.46
2018-11-21T05:42:57.024Z,89.80
2018-11-21T05:45:25.078Z,89.69
2018-11-21T05:47:53.139Z,89.40
2018-11-21T05:50:21.201Z,89.80
2018-11-21T05:52:49.286Z,89.42
2018-11-21T05:55:17.371Z,89.79
2018-11-21T05:57:45.432Z,89.64
2018-11-21T06:00:14.157Z,89.54
2018-11-21T06:02:42.227Z,89.60
2018-11-21T06:05:11.395Z,89.58
2018-11-21T06:07:39.605Z,89.58
2018-11-21T06:10:09.680Z,88.86
2018-11-21T06:12:38.036Z,88.61
2018-11-21T06:15:06.624Z,88.42
2018-11-21T06:17:34.697Z,88.79
2018-11-21T06:20:02.759Z,88.48
2018-11-21T06:22:30.872Z,88.33
2018-11-21T06:24:58.937Z,88.36
2018-11-21T06:27:26.977Z,88.70
2018-11-21T06:29:55.048Z,88.55
2018-11-21T06:32:23.155Z,88.32
2018-11-21T06:34:51.260Z,88.21
2018-11-21T06:37:19.298Z,88.18
2018-11-21T06:39:47.363Z,88.16
2018-11-21T06:42:15.420Z,87.97
2018-11-21T06:44:43.502Z,87.78
2018-11-21T06:47:11.557Z,87.92
2018-11-21T06:49:39.628Z,87.70
2018-11-21T06:52:07.786Z,87.58
2018-11-21T06:54:35.856Z,87.71
2018-11-21T06:57:03.970Z,87.89
2018-11-21T06:59:32.022Z,87.54
2018-11-21T07:02:00.097Z,87.38
2018-11-21T07:04:28.169Z,87.63
2018-11-21T07:06:56.237Z,87.47
2018-11-21T07:09:24.297Z,87.33
2018-11-21T07:11:52.361Z,87.51
2018-11-21T07:14:20.427Z,86.96
2018-11-21T07:16:48.498Z,86.62
2018-11-21T07:19:16.556Z,86.24
2018-11-21T07:21:44.658Z,86.18
2018-11-21T07:24:12.723Z,86.27
2018-11-21T07:26:40.783Z,86.04
2018-11-21T07:29:08.925Z,85.59
2018-11-21T07:31:37.000Z,85.61
2018-11-21T07:34:05.398Z,85.36
2018-11-21T07:36:33.864Z,85.45
2018-11-21T07:39:01.957Z,85.74
2018-11-21T07:41:30.058Z,85.27
2018-11-21T07:43:58.147Z,85.66
2018-11-21T07:46:26.244Z,85.40
2018-11-21T07:48:54.303Z,85.02
2018-11-21T07:51:22.416Z,85.38
2018-11-21T07:53:50.509Z,85.21
2018-11-21T07:56:58.586Z,85.37
2018-11-21T08:00:05.502Z,85.14
2018-11-21T08:02:37.023Z,84.63
2018-11-21T08:05:11.118Z,84.28
2018-11-21T08:10:52.409Z,84.07
2018-11-21T08:13:36.618Z,83.97
2018-11-21T08:16:23.951Z,84.34
2018-11-21T08:19:11.151Z,84.87
2018-11-21T08:21:58.357Z,84.64
2018-11-21T08:24:37.569Z,84.37
2018-11-21T08:27:24.774Z,85.34
2018-11-21T08:29:52.834Z,85.58
2018-11-21T08:32:20.916Z,84.81
2018-11-21T08:34:49.000Z,84.98
2018-11-21T08:37:17.093Z,85.25
2018-11-21T08:39:45.177Z,85.13
2018-11-21T08:42:13.249Z,84.84
2018-11-21T08:47:36.899Z,84.74
2018-11-21T08:50:07.852Z,84.94
2018-11-21T08:52:35.952Z,84.58
2018-11-21T08:55:08.911Z,84.43
2018-11-21T08:57:32.599Z,84.28
2018-11-21T09:00:00.668Z,84.37
2018-11-21T09:02:28.768Z,84.34
2018-11-21T09:04:56.885Z,84.33
2018-11-21T09:07:24.977Z,83.87
2018-11-21T09:09:53.060Z,83.78
2018-11-21T09:12:21.136Z,83.75
2018-11-21T09:14:49.244Z,83.45
2018-11-21T09:17:17.334Z,83.52
2018-11-21T09:19:45.453Z,83.61
2018-11-21T09:22:13.574Z,83.30
2018-11-21T09:24:41.671Z,82.90
2018-11-21T09:27:09.750Z,83.05
2018-11-21T09:29:37.884Z,82.90
2018-11-21T09:32:06.042Z,83.03
2018-11-21T09:34:34.214Z,82.89
2018-11-21T09:37:02.389Z,82.92
2018-11-21T09:39:30.482Z,82.85
2018-11-21T09:41:58.555Z,83.28
2018-11-21T09:44:26.652Z,82.80
2018-11-21T09:46:54.746Z,82.73
2018-11-21T09:49:22.853Z,82.67
2018-11-21T09:51:50.928Z,82.65
2018-11-21T09:54:19.045Z,82.28
2018-11-21T09:56:47.116Z,82.29
2018-11-21T09:59:15.188Z,81.95
2018-11-21T10:02:28.190Z,81.16
2018-11-21T10:04:56.313Z,81.12
2018-11-21T10:07:24.396Z,81.33
2018-11-21T10:09:52.794Z,80.79
2018-11-21T10:12:20.883Z,80.42
2018-11-21T10:14:48.966Z,80.62
2018-11-21T10:17:17.043Z,79.90
2018-11-21T10:19:45.132Z,79.37
2018-11-21T10:22:13.206Z,79.50
2018-11-21T10:24:41.314Z,79.91
2018-11-21T10:27:09.406Z,79.95
2018-11-21T10:29:37.497Z,80.33
2018-11-21T10:32:05.681Z,79.49
2018-11-21T10:34:33.933Z,79.74
2018-11-21T10:37:01.911Z,79.78
2018-11-21T10:39:29.988Z,79.66
2018-11-21T10:41:58.073Z,79.57
2018-11-21T10:44:26.143Z,79.75
2018-11-21T10:46:54.226Z,79.55
2018-11-21T10:49:22.306Z,78.92
2018-11-21T10:51:50.396Z,78.64
2018-11-21T10:54:18.480Z,78.69
2018-11-21T10:56:46.795Z,78.40
2018-11-21T10:59:14.951Z,78.26
2018-11-21T11:19:59.901Z,77.62
2018-11-21T11:22:47.106Z,77.60
2018-11-21T11:28:37.628Z,77.60
2018-11-21T11:40:27.096Z,77.65
2018-11-21T11:43:14.291Z,78.01
2018-11-21T11:46:01.501Z,78.13
2018-11-21T11:48:39.413Z,78.19
2018-11-21T11:51:26.651Z,78.00
2018-11-21T11:54:13.832Z,78.23
2018-11-21T11:57:02.702Z,78.15
2018-11-21T11:59:49.901Z,78.69
2018-11-21T12:02:37.140Z,78.26
2018-11-21T12:05:25.773Z,78.27
2018-11-21T12:08:14.481Z,78.22
2018-11-21T12:11:01.663Z,77.85
2018-11-21T12:13:48.872Z,77.98
2018-11-21T12:16:36.171Z,77.61
2018-11-21T12:19:23.385Z,77.33
2018-11-21T12:22:10.618Z,77.64
2018-11-21T12:24:57.815Z,77.19
2018-11-21T12:27:45.023Z,77.84
2018-11-21T12:33:28.727Z,76.79
2018-11-21T12:39:00.363Z,76.50
2018-11-21T12:41:47.552Z,76.42
2018-11-21T12:47:27.424Z,75.60
2018-11-21T12:50:14.611Z,74.84
2018-11-21T12:53:01.830Z,75.32
2018-11-21T12:55:49.118Z,74.96
2018-11-21T12:58:36.256Z,74.77
2018-11-21T13:01:23.445Z,74.68
2018-11-21T13:04:10.652Z,74.91
2018-11-21T13:06:57.834Z,74.70
2018-11-21T13:09:45.072Z,75.05
2018-11-21T13:12:32.270Z,74.78
2018-11-21T13:15:43.471Z,74.97
2018-11-21T13:18:21.371Z,75.20
2018-11-21T13:21:08.550Z,74.73
2018-11-21T13:23:55.755Z,74.98
2018-11-21T13:26:42.931Z,74.76
2018-11-21T13:29:30.135Z,74.83
2018-11-21T13:32:10.782Z,74.87
2018-11-21T13:34:48.920Z,74.81
2018-11-21T13:37:36.153Z,75.14
2018-11-21T13:43:33.565Z,75.01
2018-11-21T13:46:28.962Z,75.02
2018-11-21T13:49:17.437Z,74.94
2018-11-21T13:54:51.687Z,74.78
2018-11-21T14:00:43.665Z,75.21
2018-11-21T14:03:14.651Z,75.15
2018-11-21T14:06:03.451Z,75.17
2018-11-21T14:08:31.506Z,74.38
2018-11-21T14:10:59.597Z,74.50
2018-11-21T14:13:27.652Z,74.72
2018-11-21T14:15:55.809Z,74.54
2018-11-21T14:18:23.915Z,74.92
2018-11-21T14:20:52.000Z,75.04
2018-11-21T14:23:20.075Z,75.43
2018-11-21T14:25:48.167Z,75.86
2018-11-21T14:28:16.226Z,76.07
2018-11-21T14:30:44.295Z,76.32
2018-11-21T14:33:12.357Z,76.17
2018-11-21T14:35:40.435Z,76.27
2018-11-21T14:38:08.500Z,76.20
2018-11-21T14:40:36.587Z,75.65
2018-11-21T14:43:04.682Z,76.09
2018-11-21T14:45:32.750Z,75.87
2018-11-21T14:48:00.844Z,75.63
2018-11-21T14:50:30.964Z,75.67
2018-11-21T14:52:59.034Z,76.12
2018-11-21T14:55:27.199Z,75.78
2018-11-21T14:57:55.249Z,75.86
2018-11-21T15:00:23.633Z,75.92
2018-11-21T15:02:51.688Z,76.00
2018-11-21T15:05:19.763Z,76.30
2018-11-21T15:07:48.098Z,76.49
2018-11-21T15:10:16.205Z,76.37
2018-11-21T15:12:44.289Z,76.61
2018-11-21T15:15:14.790Z,76.78
2018-11-21T15:17:42.881Z,76.36
2018-11-21T15:20:13.401Z,76.46
2018-11-21T15:22:41.464Z,76.08
2018-11-21T15:25:11.884Z,76.29
2018-11-21T15:27:40.248Z,76.56
2018-11-21T15:30:28.963Z,76.40
2018-11-21T15:32:57.064Z,76.49
2018-11-21T15:35:25.253Z,77.04
2018-11-21T15:37:53.351Z,76.67
2018-11-21T15:40:22.663Z,76.99
2018-11-21T15:42:50.881Z,76.95
2018-11-21T15:45:20.403Z,77.10
2018-11-21T15:48:08.013Z,77.13
2018-11-21T15:50:36.044Z,77.23
2018-11-21T15:53:04.130Z,77.43
2018-11-21T15:55:32.203Z,77.28
2018-11-21T15:58:00.277Z,77.11
2018-11-21T16:00:29.932Z,77.38
2018-11-21T16:03:00.366Z,77.77
2018-11-21T16:05:28.408Z,77.49
2018-11-21T16:07:57.538Z,77.39
2018-11-21T16:10:26.200Z,77.51
2018-11-21T16:12:54.283Z,77.91
2018-11-21T16:15:24.600Z,77.90
2018-11-21T16:17:52.676Z,77.62
2018-11-21T16:20:20.953Z,77.75
2018-11-21T16:22:49.071Z,77.54
2018-11-21T16:25:18.638Z,77.44
2018-11-21T16:27:46.780Z,77.80
2018-11-21T16:30:19.498Z,77.75
2018-11-21T16:33:07.184Z,77.35
2018-11-21T16:35:35.418Z,77.50
2018-11-21T16:38:03.716Z,77.05
2018-11-21T16:40:32.921Z,77.32
2018-11-21T16:43:01.432Z,77.19
2018-11-21T16:48:24.629Z,77.10
2018-11-21T16:50:52.721Z,77.67
2018-11-21T16:53:40.075Z,77.20
2018-11-21T16:56:08.608Z,77.14
2018-11-21T16:58:37.230Z,77.26
2018-11-21T17:01:05.565Z,77.31
2018-11-21T17:03:33.680Z,76.68
2018-11-21T17:06:01.790Z,76.83
2018-11-21T17:08:30.395Z,77.26
2018-11-21T17:10:58.477Z,77.10
2018-11-21T17:13:26.575Z,77.26
2018-11-21T17:15:55.520Z,77.82
2018-11-21T17:18:23.633Z,77.56
2018-11-21T17:20:54.508Z,77.39
2018-11-21T17:23:23.033Z,77.46
2018-11-21T17:25:51.240Z,77.60
2018-11-21T17:28:19.767Z,77.21
2018-11-21T17:30:48.061Z,77.10
2018-11-21T17:33:16.190Z,77.32
2018-11-21T17:38:41.016Z,77.33
2018-11-21T17:41:09.138Z,77.43
2018-11-21T17:43:39.290Z,77.07
2018-11-21T17:46:07.891Z,77.20
2018-11-21T17:48:38.790Z,77.16
2018-11-21T17:54:03.004Z,77.07
2018-11-21T17:56:31.448Z,77.41
2018-11-21T17:59:02.926Z,76.92
2018-11-21T18:01:32.676Z,76.61
2018-11-21T18:07:05.973Z,76.79
2018-11-21T18:12:08.153Z,76.49
2018-11-21T18:14:36.761Z,76.62
2018-11-21T18:17:04.821Z,77.00
2018-11-21T18:19:32.948Z,76.54
2018-11-21T18:22:01.039Z,76.77
2018-11-21T18:24:29.314Z,76.70
2018-11-21T18:26:58.080Z,77.00
2018-11-21T18:29:26.172Z,76.29
2018-11-21T18:31:54.641Z,76.12
2018-11-21T18:34:25.426Z,76.04
2018-11-21T18:36:53.494Z,76.11
2018-11-21T18:39:21.564Z,76.05
2018-11-21T18:41:49.633Z,75.87
2018-11-21T18:44:17.910Z,75.92
2018-11-21T18:46:45.962Z,76.58
2018-11-21T18:49:14.109Z,76.36
2018-11-21T18:51:42.282Z,76.38
2018-11-21T18:54:10.440Z,76.02
2018-11-21T19:02:36.720Z,76.29
2018-11-21T19:05:06.006Z,76.27
2018-11-21T19:10:30.238Z,76.29
2018-11-21T19:12:58.611Z,76.41
2018-11-21T19:15:27.031Z,76.74
2018-11-21T19:17:55.341Z,76.45
2018-11-21T19:20:23.731Z,76.02
2018-11-21T19:22:52.064Z,76.39
2018-11-21T19:25:20.482Z,76.46
2018-11-21T19:27:48.837Z,76.57
2018-11-21T19:30:20.011Z,76.92
2018-11-21T19:32:49.485Z,76.92
2018-11-21T19:35:26.635Z,76.92
2018-11-21T19:56:12.566Z,77.75
2018-11-21T19:58:54.159Z,77.45
2018-11-21T20:43:32.104Z,79.99
2018-11-21T20:55:52.272Z,80.41
2018-11-21T20:58:45.869Z,80.23
2018-11-21T21:04:23.720Z,80.43
2018-11-21T21:10:04.709Z,80.40
2018-11-21T21:28:14.166Z,81.67
2018-11-21T21:30:59.234Z,81.63
2018-11-21T21:33:52.254Z,81.98
2018-11-21T21:36:41.274Z,81.91
2018-11-21T21:42:41.754Z,82.22
2018-11-21T21:45:38.307Z,82.29
2018-11-21T21:54:16.315Z,82.38
2018-11-21T21:57:07.765Z,82.65
2018-11-21T22:12:29.310Z,83.20
2018-11-21T22:33:14.897Z,83.42
2018-11-21T22:47:16.945Z,83.75
2018-11-21T22:59:02.310Z,83.58
2018-11-21T23:01:43.819Z,83.45
2018-11-21T23:18:49.639Z,84.63
2018-11-21T23:57:40.258Z,84.54
